Arklow Manor — EIHC3 — position and weather

sailwx.info

Track history (hours):
 
Tides and Currents Weather Stations Pressure Air Temp Water Temp Dewpoint Dewpoint Depression Visibility Wind Speed Wind Dir Waves Ship Positions

Arklow Manor

Last reported at 2018-Apr-24 21:52 UTC. Time now 2018-Apr-26 17:25 UTC.
Position N 52°35' W 009°39'.

Length 137 m; draft 5.5 m.

Type: Cargo ship. MMSI: 250001723.

Date/timePositionNaut miles runAvg speedWind from/ knotsBaromVisibWave heightAir tempDewpointWater temp
2018-Apr-24 21:52N 52°35' W 009°39'615.7
2018-Apr-24 21:29N 52°33' W 009°48'2313.7
2018-Apr-24 19:46N 52°54' W 010°06'515.8
2018-Apr-24 19:29N 52°58' W 010°07'816.0
2018-Apr-24 19:00N 53°06' W 010°10'816.2
2018-Apr-24 18:30N 53°14' W 010°14'815.8
2018-Apr-24 18:00N 53°21' W 010°17'815.6
2018-Apr-24 17:30N 53°29' W 010°19'815.4
2018-Apr-24 17:00N 53°36' W 010°23'714.4
2018-Apr-24 16:30N 53°44' W 010°22'714.8
2018-Apr-24 16:00N 53°51' W 010°20'714.9
2018-Apr-24 15:30N 53°58' W 010°19'714.7
2018-Apr-24 15:00N 54°06' W 010°17'714.5
2018-Apr-24 14:30N 54°13' W 010°13'814.7
2018-Apr-24 13:59N 54°19' W 010°07'914.6
2018-Apr-24 13:24N 54°27' W 010°00'7115.1
2018-Apr-24 08:40N 55°28' W 008°55'314.3
2018-Apr-24 08:27N 55°30' W 008°52'713.7
2018-Apr-24 07:54N 55°37' W 008°46'20313.9
2018-Apr-23 17:19N 58°28' W 005°25'6012.3
2018-Apr-23 12:26N 58°41' W 003°32'512.4
2018-Apr-23 12:00N 58°41' W 003°22'611.1
2018-Apr-23 11:30N 58°43' W 003°12'510.9
2018-Apr-23 11:00N 58°41' W 003°02'612.5
2018-Apr-23 10:30N 58°36' W 002°55'5212.2
2018-Apr-23 06:15N 57°54' W 001°57'311.7
2018-Apr-23 05:59N 57°51' W 001°54'511.1
2018-Apr-23 05:30N 57°47' W 001°48'510.8
2018-Apr-23 05:00N 57°42' W 001°43'510.8
2018-Apr-23 04:30N 57°38' W 001°37'611.4
2018-Apr-23 03:57N 57°32' W 001°32'1812.3
2018-Apr-23 02:31N 57°15' W 001°40'013.7
2018-Apr-23 02:30N 57°15' W 001°40'612.9
2018-Apr-23 02:00N 57°09' W 001°45'612.3
2018-Apr-23 01:30N 57°03' W 001°49'3913.4
2018-Apr-22 22:38N 56°26' W 002°09'312.9
2018-Apr-22 22:26N 56°24' W 002°10'612.7
2018-Apr-22 21:57N 56°18' W 002°14'612.2
2018-Apr-22 21:28N 56°13' W 002°18'511.7
2018-Apr-22 21:00N 56°10' W 002°26'612.8
2018-Apr-22 20:30N 56°08' W 002°37'713.4
2018-Apr-22 20:00N 56°06' W 002°49'612.9
2018-Apr-22 19:30N 56°04' W 002°59'612.6
2018-Apr-22 19:00N 56°00' W 003°09'1 1.8
2018-Apr-22 18:13N 55°59' W 003°11'0 0.0
2018-Apr-22 18:00N 55°59' W 003°11'1 1.1
2018-Apr-22 17:30N 55°59' W 003°10'0 0.2
2018-Apr-22 17:00N 55°59' W 003°10'0 0.0
2018-Apr-22 16:31N 55°59' W 003°10'0 0.0
2018-Apr-22 15:58N 55°59' W 003°10'0 0.0
2018-Apr-22 15:28N 55°59' W 003°10'0 0.0
2018-Apr-22 15:00N 55°59' W 003°10'0 0.0
2018-Apr-22 14:27N 55°59' W 003°10'0 0.0
2018-Apr-22 13:57N 55°59' W 003°10'0 0.0
2018-Apr-22 13:27N 55°59' W 003°10'0 0.0
2018-Apr-22 12:57N 55°59' W 003°10'0 0.0
2018-Apr-22 12:27N 55°59' W 003°10'0 0.0
2018-Apr-22 11:57N 55°59' W 003°10'0 0.0
2018-Apr-22 11:21N 55°59' W 003°10'0 0.0
2018-Apr-22 10:57N 55°59' W 003°10'0 0.0
2018-Apr-22 10:27N 55°59' W 003°10'0 0.0
2018-Apr-22 10:00N 55°59' W 003°10'0 0.0
2018-Apr-22 09:27N 55°59' W 003°10'0 0.0
2018-Apr-22 09:00N 55°59' W 003°10'0 0.0
2018-Apr-22 08:30N 55°59' W 003°10'0 0.0
2018-Apr-22 08:00N 55°59' W 003°10'0 0.0
2018-Apr-22 07:30N 55°59' W 003°10'0 0.0
2018-Apr-22 07:00N 55°59' W 003°10'0 0.0
2018-Apr-22 06:30N 55°59' W 003°10'0 0.0
2018-Apr-22 06:00N 55°59' W 003°10'0 0.0
2018-Apr-22 05:30N 55°59' W 003°10'0 0.0
2018-Apr-22 05:00N 55°59' W 003°10'0 0.0
2018-Apr-22 04:30N 55°59' W 003°10'0 0.0
2018-Apr-22 04:00N 55°59' W 003°10'0 0.0
2018-Apr-22 03:30N 55°59' W 003°10'0 0.0
2018-Apr-22 03:00N 55°59' W 003°10'0 0.0
2018-Apr-22 02:30N 55°59' W 003°10'0 0.0
2018-Apr-22 02:00N 55°59' W 003°10'0 0.0
2018-Apr-22 01:30N 55°59' W 003°10'0 0.0
2018-Apr-22 01:00N 55°59' W 003°10'0 0.0
2018-Apr-22 00:30N 55°59' W 003°10'0 0.0
2018-Apr-22 00:00N 55°59' W 003°10'0 0.0
2018-Apr-21 23:30N 55°59' W 003°10'0 0.0
2018-Apr-21 23:00N 55°59' W 003°10'0 0.0
2018-Apr-21 22:30N 55°59' W 003°10'0 0.0
2018-Apr-21 22:00N 55°59' W 003°10'0 0.0
2018-Apr-21 21:30N 55°59' W 003°10'0 0.0
2018-Apr-21 21:00N 55°59' W 003°10'0 0.0
2018-Apr-21 20:30N 55°59' W 003°10'0 0.0
2018-Apr-21 20:00N 55°59' W 003°10'0 0.0
2018-Apr-21 19:30N 55°59' W 003°10'0 0.0
2018-Apr-21 19:00N 55°59' W 003°10'0 0.0
2018-Apr-21 18:30N 55°59' W 003°10'0 0.0
2018-Apr-21 18:00N 55°59' W 003°10'0 0.0
2018-Apr-21 17:27N 55°59' W 003°10'0 0.0
2018-Apr-21 17:00N 55°59' W 003°10'0 0.0
2018-Apr-21 16:27N 55°59' W 003°10'0 0.0
2018-Apr-21 15:57N 55°59' W 003°10'0 0.0
2018-Apr-21 15:30N 55°59' W 003°10'0 0.0
2018-Apr-21 15:00N 55°59' W 003°10'0 0.0
2018-Apr-21 14:27N 55°59' W 003°10'0 0.0
2018-Apr-21 14:00N 55°59' W 003°10'0 0.0
2018-Apr-21 13:30N 55°59' W 003°10'0 0.0
2018-Apr-21 13:00N 55°59' W 003°10'0 0.0
2018-Apr-21 12:30N 55°59' W 003°10'0 0.0
2018-Apr-21 12:00N 55°59' W 003°10'0 0.0
2018-Apr-21 11:27N 55°59' W 003°10'0 0.0
2018-Apr-21 11:00N 55°59' W 003°10'0 0.0
2018-Apr-21 10:30N 55°59' W 003°10'0 0.0
2018-Apr-21 10:00N 55°59' W 003°10'0 0.0
2018-Apr-21 09:30N 55°59' W 003°10'0 0.0
2018-Apr-21 09:00N 55°59' W 003°10'0 0.0
2018-Apr-21 08:30N 55°59' W 003°10'0 0.0
2018-Apr-21 08:00N 55°59' W 003°10'0 0.0
2018-Apr-21 07:30N 55°59' W 003°10'0 0.0
2018-Apr-21 07:00N 55°59' W 003°10'0 0.0
2018-Apr-21 06:30N 55°59' W 003°10'0 0.0
2018-Apr-21 06:00N 55°59' W 003°10'0 0.0
2018-Apr-21 05:30N 55°59' W 003°10'0 0.0
2018-Apr-21 05:00N 55°59' W 003°10'0 0.0
2018-Apr-21 04:30N 55°59' W 003°10'0 0.0
2018-Apr-21 04:00N 55°59' W 003°10'0 0.0
2018-Apr-21 03:30N 55°59' W 003°10'0 0.0
2018-Apr-21 03:00N 55°59' W 003°10'0 0.0
2018-Apr-21 02:30N 55°59' W 003°10'0 0.0
2018-Apr-21 02:00N 55°59' W 003°10'0 0.0
2018-Apr-21 01:30N 55°59' W 003°10'0 0.0
2018-Apr-21 01:00N 55°59' W 003°10'0 0.0
2018-Apr-21 00:30N 55°59' W 003°10'0 0.0
2018-Apr-21 00:00N 55°59' W 003°10'0 0.0
2018-Apr-20 23:30N 55°59' W 003°10'0 0.0
2018-Apr-20 23:00N 55°59' W 003°10'0 0.0
2018-Apr-20 22:30N 55°59' W 003°10'0 0.0
2018-Apr-20 22:00N 55°59' W 003°10'0 0.0
2018-Apr-20 21:30N 55°59' W 003°10'0 0.0
2018-Apr-20 20:57N 55°59' W 003°10'0 0.0
2018-Apr-20 20:30N 55°59' W 003°10'0 0.0
2018-Apr-20 20:00N 55°59' W 003°10'0 0.0
2018-Apr-20 19:30N 55°59' W 003°10'0 0.0
2018-Apr-20 19:00N 55°59' W 003°10'0 0.0
2018-Apr-20 18:30N 55°59' W 003°10'0 0.0
2018-Apr-20 18:00N 55°59' W 003°10'0 0.0
2018-Apr-20 17:30N 55°59' W 003°10'0 0.0
2018-Apr-20 17:00N 55°59' W 003°10'0 0.0
2018-Apr-20 16:30N 55°59' W 003°10'0 0.0
2018-Apr-20 16:00N 55°59' W 003°10'0 0.0
2018-Apr-20 15:30N 55°59' W 003°10'0 0.0
2018-Apr-20 15:00N 55°59' W 003°10'0 0.0
2018-Apr-20 14:30N 55°59' W 003°10'0 0.0
2018-Apr-20 14:00N 55°59' W 003°10'0 0.0
2018-Apr-20 13:30N 55°59' W 003°10'0 0.0
2018-Apr-20 13:00N 55°59' W 003°10'0 0.0
2018-Apr-20 12:30N 55°59' W 003°10'0 0.0
2018-Apr-20 12:00N 55°59' W 003°10'0 0.0
2018-Apr-20 11:30N 55°59' W 003°10'0 0.0
2018-Apr-20 11:00N 55°59' W 003°10'0 0.0
2018-Apr-20 10:30N 55°59' W 003°10'0 0.0
2018-Apr-20 10:00N 55°59' W 003°10'0 0.0
2018-Apr-20 09:30N 55°59' W 003°10'0 0.0
2018-Apr-20 09:00N 55°59' W 003°10'0 0.0
2018-Apr-20 08:30N 55°59' W 003°10'0 0.0
2018-Apr-20 08:00N 55°59' W 003°10'0 0.0
2018-Apr-20 07:30N 55°59' W 003°10'0 0.0
2018-Apr-20 07:00N 55°59' W 003°10'0 0.0
2018-Apr-20 06:30N 55°59' W 003°10'0 0.0
2018-Apr-20 06:00N 55°59' W 003°10'0 0.0
2018-Apr-20 05:30N 55°59' W 003°10'0 0.0
2018-Apr-20 05:00N 55°59' W 003°10'0 0.0
2018-Apr-20 04:30N 55°59' W 003°10'0 0.0
2018-Apr-20 04:00N 55°59' W 003°10'0 0.0
2018-Apr-20 03:30N 55°59' W 003°10'0 0.0
2018-Apr-20 03:00N 55°59' W 003°10'0 0.0
2018-Apr-20 02:30N 55°59' W 003°10'0 0.0
2018-Apr-20 02:00N 55°59' W 003°10'0 0.0
2018-Apr-20 01:30N 55°59' W 003°10'0 0.0
2018-Apr-20 01:00N 55°59' W 003°10'0 0.0
2018-Apr-20 00:30N 55°59' W 003°10'0 0.0
2018-Apr-20 00:00N 55°59' W 003°10'0 0.0
2018-Apr-19 23:30N 55°59' W 003°10'0 0.0
2018-Apr-19 23:00N 55°59' W 003°10'0 0.0
2018-Apr-19 22:30N 55°59' W 003°10'0 0.0
2018-Apr-19 22:00N 55°59' W 003°10'0 0.0
2018-Apr-19 21:30N 55°59' W 003°10'0 0.0
2018-Apr-19 21:00N 55°59' W 003°10'0 0.0
2018-Apr-19 20:30N 55°59' W 003°10'0 0.0
2018-Apr-19 20:00N 55°59' W 003°10'0 0.0
2018-Apr-19 19:30N 55°59' W 003°10'0 0.0
2018-Apr-19 19:00N 55°59' W 003°10'0 0.0
2018-Apr-19 18:30N 55°59' W 003°10'0 0.0
2018-Apr-19 18:00N 55°59' W 003°10'0 0.0
2018-Apr-19 17:30N 55°59' W 003°10'0 0.0
2018-Apr-19 17:00N 55°59' W 003°10'0 0.0
2018-Apr-19 16:30N 55°59' W 003°10'0 0.0
2018-Apr-19 16:00N 55°59' W 003°10'0 0.0
2018-Apr-19 15:30N 55°59' W 003°10'0 0.0
2018-Apr-19 15:00N 55°59' W 003°10'0 0.0
2018-Apr-19 14:30N 55°59' W 003°10'0 0.0
2018-Apr-19 14:00N 55°59' W 003°10'0 0.0
2018-Apr-19 13:30N 55°59' W 003°10'0 0.0
2018-Apr-19 13:00N 55°59' W 003°10'0 0.0
2018-Apr-19 12:30N 55°59' W 003°10'0 0.0
2018-Apr-19 12:00N 55°59' W 003°10'0 0.0
2018-Apr-19 11:30N 55°59' W 003°10'0 0.0
2018-Apr-19 11:00N 55°59' W 003°10'0 0.0
2018-Apr-19 10:30N 55°59' W 003°10'0 0.0
2018-Apr-19 10:00N 55°59' W 003°10'0 0.0
2018-Apr-19 09:30N 55°59' W 003°10'0 0.0
2018-Apr-19 09:00N 55°59' W 003°10'0 0.0
2018-Apr-19 08:30N 55°59' W 003°10'0 0.0
2018-Apr-19 08:00N 55°59' W 003°10'0 0.0
2018-Apr-19 07:30N 55°59' W 003°10'0 0.0
2018-Apr-19 07:00N 55°59' W 003°10'0 0.0
2018-Apr-19 06:30N 55°59' W 003°10'0 0.0
2018-Apr-19 06:00N 55°59' W 003°10'0 0.0
2018-Apr-19 05:30N 55°59' W 003°10'0 0.0
2018-Apr-19 05:00N 55°59' W 003°10'0 0.0
2018-Apr-19 04:30N 55°59' W 003°10'0 0.0
2018-Apr-19 04:00N 55°59' W 003°10'0 0.0
2018-Apr-19 03:30N 55°59' W 003°10'0 0.0
2018-Apr-19 03:00N 55°59' W 003°10'0 0.0
2018-Apr-19 02:30N 55°59' W 003°10'0 0.0
2018-Apr-19 02:00N 55°59' W 003°10'0 0.0
2018-Apr-19 01:30N 55°59' W 003°10'0 0.0
2018-Apr-19 01:00N 55°59' W 003°10'0 0.0
2018-Apr-19 00:30N 55°59' W 003°10'0 0.0
2018-Apr-19 00:00N 55°59' W 003°10'0 0.0
2018-Apr-18 23:30N 55°59' W 003°10'0 0.0
2018-Apr-18 22:57N 55°59' W 003°10'0 0.0
2018-Apr-18 22:30N 55°59' W 003°10'0 0.0
2018-Apr-18 22:00N 55°59' W 003°10'0 0.0
2018-Apr-18 21:30N 55°59' W 003°10'0 0.0
2018-Apr-18 21:00N 55°59' W 003°10'0 0.0
2018-Apr-18 20:30N 55°59' W 003°10'0 0.0
2018-Apr-18 20:00N 55°59' W 003°10'0 0.0
2018-Apr-18 19:30N 55°59' W 003°10'0 0.0
2018-Apr-18 19:00N 55°59' W 003°10'0 0.0
2018-Apr-18 18:30N 55°59' W 003°10'0 0.0
2018-Apr-18 18:00N 55°59' W 003°10'0 0.0
2018-Apr-18 17:27N 55°59' W 003°10'0 0.0
2018-Apr-18 17:00N 55°59' W 003°10'0 0.0
2018-Apr-18 16:27N 55°59' W 003°10'0 0.0
2018-Apr-18 16:00N 55°59' W 003°10'0 0.0
2018-Apr-18 15:30N 55°59' W 003°10'0 0.0
2018-Apr-18 15:00N 55°59' W 003°10'0 0.0
2018-Apr-18 14:30N 55°59' W 003°10'0 0.0
2018-Apr-18 14:00N 55°59' W 003°10'0 0.0
2018-Apr-18 13:30N 55°59' W 003°10'0 0.0
2018-Apr-18 13:00N 55°59' W 003°10'0 0.0
2018-Apr-18 12:30N 55°59' W 003°10'0 0.0
2018-Apr-18 12:00N 55°59' W 003°10'0 0.0
2018-Apr-18 11:27N 55°59' W 003°10'0 0.0
2018-Apr-18 11:00N 55°59' W 003°10'0 0.0
2018-Apr-18 10:30N 55°59' W 003°10'0 0.0
2018-Apr-18 10:00N 55°59' W 003°10'0 0.0
2018-Apr-18 09:27N 55°59' W 003°10'0 0.0
2018-Apr-18 09:00N 55°59' W 003°10'0 0.0
2018-Apr-18 08:30N 55°59' W 003°10'0 0.0
2018-Apr-18 08:00N 55°59' W 003°10'0 0.0
2018-Apr-18 07:30N 55°59' W 003°10'0 0.0
2018-Apr-18 06:57N 55°59' W 003°10'0 0.0
2018-Apr-18 06:30N 55°59' W 003°10'0 0.0
2018-Apr-18 05:57N 55°59' W 003°10'0 0.0
2018-Apr-18 05:30N 55°59' W 003°10'0 0.0
2018-Apr-18 05:00N 55°59' W 003°10'0 0.4
2018-Apr-18 04:30N 55°59' W 003°10'0 1.0
2018-Apr-18 04:00N 55°59' W 003°11'0 0.5
2018-Apr-18 03:30N 55°59' W 003°11'1 2.4
2018-Apr-18 03:00N 56°00' W 003°10'4 7.9
2018-Apr-18 02:30N 56°02' W 003°04'2 4.2
2018-Apr-18 02:00N 56°03' W 003°00'2 3.9
2018-Apr-18 01:30N 56°04' W 002°57'2 4.2
2018-Apr-18 01:00N 56°05' W 002°54'2 4.4
2018-Apr-18 00:30N 56°06' W 002°50'2 4.1
2018-Apr-18 00:00N 56°06' W 002°46'2 4.5
2018-Apr-17 23:30N 56°07' W 002°43'2 4.3
2018-Apr-17 23:00N 56°08' W 002°39'2 4.3
2018-Apr-17 22:30N 56°08' W 002°35'2 4.5
2018-Apr-17 22:00N 56°09' W 002°31'2 4.4
2018-Apr-17 21:30N 56°10' W 002°28'2 4.4
2018-Apr-17 21:00N 56°10' W 002°24'2 4.6
2018-Apr-17 20:30N 56°11' W 002°20'2 4.1
2018-Apr-17 20:00N 56°13' W 002°18'2 4.4
2018-Apr-17 19:30N 56°15' W 002°17'2 4.3
2018-Apr-17 19:00N 56°17' W 002°16'3 5.9
2018-Apr-17 18:30N 56°20' W 002°14'3 6.8
2018-Apr-17 18:00N 56°23' W 002°12'4 7.1
2018-Apr-17 17:30N 56°27' W 002°11'4 7.3
2018-Apr-17 17:00N 56°30' W 002°09'27 8.3
2018-Apr-17 13:41N 56°56' W 001°52'211.1
2018-Apr-17 13:30N 56°58' W 001°51'610.8
2018-Apr-17 12:59N 57°03' W 001°48'510.4
2018-Apr-17 12:30N 57°08' W 001°45'510.1
2018-Apr-17 12:00N 57°13' W 001°41'6 9.9
2018-Apr-17 11:23N 57°18' W 001°38'4 9.6
2018-Apr-17 10:59N 57°22' W 001°35'5 9.4
2018-Apr-17 10:30N 57°27' W 001°33'4 9.1
2018-Apr-17 10:00N 57°31' W 001°31'4 8.0
2018-Apr-17 09:29N 57°35' W 001°32'4 8.7
2018-Apr-17 09:00N 57°38' W 001°36'4 8.6
2018-Apr-17 08:30N 57°42' W 001°41'4 8.7
2018-Apr-17 08:00N 57°45' W 001°47'4 8.7
2018-Apr-17 07:30N 57°49' W 001°51'5 9.0
2018-Apr-17 06:55N 57°53' W 001°56'44 9.5
2018-Apr-17 02:17N 58°30' W 002°43'3 9.6
2018-Apr-17 02:00N 58°32' W 002°46'4 8.9
2018-Apr-17 01:30N 58°36' W 002°51'5 9.7
2018-Apr-17 01:00N 58°39' W 002°57'5 9.7
2018-Apr-17 00:30N 58°43' W 003°04'611.5
2018-Apr-17 00:00N 58°44' W 003°15'611.8
2018-Apr-16 23:28N 58°44' W 003°27'5811.7
2018-Apr-16 18:30N 58°32' W 005°15'17410.7
2018-Apr-16 02:17N 55°48' W 007°03'414.3
2018-Apr-16 02:00N 55°45' W 006°58'715.1
2018-Apr-16 01:30N 55°39' W 006°49'715.0
2018-Apr-16 01:01N 55°34' W 006°40'714.3
2018-Apr-16 00:31N 55°29' W 006°30'713.5
2018-Apr-16 00:01N 55°27' W 006°19'713.3
2018-Apr-15 23:30N 55°25' W 006°08'611.7
2018-Apr-15 22:59N 55°22' W 005°59'611.7
2018-Apr-15 22:30N 55°17' W 005°54'510.5
2018-Apr-15 22:00N 55°13' W 005°48'1910.8
2018-Apr-15 20:13N 54°57' W 005°28'210.5
2018-Apr-15 20:00N 54°56' W 005°26'510.0
2018-Apr-15 19:30N 54°51' W 005°23'510.4
2018-Apr-15 19:00N 54°46' W 005°18'611.0
2018-Apr-15 18:30N 54°42' W 005°14'612.0
2018-Apr-15 18:00N 54°37' W 005°08'611.8
2018-Apr-15 17:30N 54°31' W 005°03'611.9
2018-Apr-15 17:00N 54°26' W 005°02'712.5
2018-Apr-15 16:28N 54°19' W 005°02'8312.1
2018-Apr-15 09:35N 52°57' W 005°25'214.2
2018-Apr-15 09:26N 52°55' W 005°26'714.3
2018-Apr-15 08:57N 52°48' W 005°28'7812.3
2018-Apr-15 02:36N 51°31' W 005°55'310.5
2018-Apr-15 02:16N 51°28' W 005°56'  
Track history (hours):
 
Tides and Currents Weather Stations Pressure Air Temp Water Temp Dewpoint Dewpoint Depression Visibility Wind Speed Wind Dir Waves Ship Positions

Arklow Manor

Last reported at 2018-Apr-24 21:52 UTC. Time now 2018-Apr-26 17:25 UTC.
Position N 52°35' W 009°39'.

Length 137 m; draft 5.5 m.

Type: Cargo ship. MMSI: 250001723.

Date/timePositionNaut miles runAvg speedWind from/ knotsBaromVisibWave heightAir tempDewpointWater temp
2018-Apr-24 21:52N 52°35' W 009°39'615.7
2018-Apr-24 21:29N 52°33' W 009°48'2313.7
2018-Apr-24 19:46N 52°54' W 010°06'515.8
2018-Apr-24 19:29N 52°58' W 010°07'816.0
2018-Apr-24 19:00N 53°06' W 010°10'816.2
2018-Apr-24 18:30N 53°14' W 010°14'815.8
2018-Apr-24 18:00N 53°21' W 010°17'815.6
2018-Apr-24 17:30N 53°29' W 010°19'815.4
2018-Apr-24 17:00N 53°36' W 010°23'714.4
2018-Apr-24 16:30N 53°44' W 010°22'714.8
2018-Apr-24 16:00N 53°51' W 010°20'714.9
2018-Apr-24 15:30N 53°58' W 010°19'714.7
2018-Apr-24 15:00N 54°06' W 010°17'714.5
2018-Apr-24 14:30N 54°13' W 010°13'814.7
2018-Apr-24 13:59N 54°19' W 010°07'914.6
2018-Apr-24 13:24N 54°27' W 010°00'7115.1
2018-Apr-24 08:40N 55°28' W 008°55'314.3
2018-Apr-24 08:27N 55°30' W 008°52'713.7
2018-Apr-24 07:54N 55°37' W 008°46'20313.9
2018-Apr-23 17:19N 58°28' W 005°25'6012.3
2018-Apr-23 12:26N 58°41' W 003°32'512.4
2018-Apr-23 12:00N 58°41' W 003°22'611.1
2018-Apr-23 11:30N 58°43' W 003°12'510.9
2018-Apr-23 11:00N 58°41' W 003°02'612.5
2018-Apr-23 10:30N 58°36' W 002°55'5212.2
2018-Apr-23 06:15N 57°54' W 001°57'311.7
2018-Apr-23 05:59N 57°51' W 001°54'511.1
2018-Apr-23 05:30N 57°47' W 001°48'510.8
2018-Apr-23 05:00N 57°42' W 001°43'510.8
2018-Apr-23 04:30N 57°38' W 001°37'611.4
2018-Apr-23 03:57N 57°32' W 001°32'1812.3
2018-Apr-23 02:31N 57°15' W 001°40'013.7
2018-Apr-23 02:30N 57°15' W 001°40'612.9
2018-Apr-23 02:00N 57°09' W 001°45'612.3
2018-Apr-23 01:30N 57°03' W 001°49'3913.4
2018-Apr-22 22:38N 56°26' W 002°09'312.9
2018-Apr-22 22:26N 56°24' W 002°10'612.7
2018-Apr-22 21:57N 56°18' W 002°14'612.2
2018-Apr-22 21:28N 56°13' W 002°18'511.7
2018-Apr-22 21:00N 56°10' W 002°26'612.8
2018-Apr-22 20:30N 56°08' W 002°37'713.4
2018-Apr-22 20:00N 56°06' W 002°49'612.9
2018-Apr-22 19:30N 56°04' W 002°59'612.6
2018-Apr-22 19:00N 56°00' W 003°09'1 1.8
2018-Apr-22 18:13N 55°59' W 003°11'0 0.0
2018-Apr-22 18:00N 55°59' W 003°11'1 1.1
2018-Apr-22 17:30N 55°59' W 003°10'0 0.2
2018-Apr-22 17:00N 55°59' W 003°10'0 0.0
2018-Apr-22 16:31N 55°59' W 003°10'0 0.0
2018-Apr-22 15:58N 55°59' W 003°10'0 0.0
2018-Apr-22 15:28N 55°59' W 003°10'0 0.0
2018-Apr-22 15:00N 55°59' W 003°10'0 0.0
2018-Apr-22 14:27N 55°59' W 003°10'0 0.0
2018-Apr-22 13:57N 55°59' W 003°10'0 0.0
2018-Apr-22 13:27N 55°59' W 003°10'0 0.0
2018-Apr-22 12:57N 55°59' W 003°10'0 0.0
2018-Apr-22 12:27N 55°59' W 003°10'0 0.0
2018-Apr-22 11:57N 55°59' W 003°10'0 0.0
2018-Apr-22 11:21N 55°59' W 003°10'0 0.0
2018-Apr-22 10:57N 55°59' W 003°10'0 0.0
2018-Apr-22 10:27N 55°59' W 003°10'0 0.0
2018-Apr-22 10:00N 55°59' W 003°10'0 0.0
2018-Apr-22 09:27N 55°59' W 003°10'0 0.0
2018-Apr-22 09:00N 55°59' W 003°10'0 0.0
2018-Apr-22 08:30N 55°59' W 003°10'0 0.0
2018-Apr-22 08:00N 55°59' W 003°10'0 0.0
2018-Apr-22 07:30N 55°59' W 003°10'0 0.0
2018-Apr-22 07:00N 55°59' W 003°10'0 0.0
2018-Apr-22 06:30N 55°59' W 003°10'0 0.0
2018-Apr-22 06:00N 55°59' W 003°10'0 0.0
2018-Apr-22 05:30N 55°59' W 003°10'0 0.0
2018-Apr-22 05:00N 55°59' W 003°10'0 0.0
2018-Apr-22 04:30N 55°59' W 003°10'0 0.0
2018-Apr-22 04:00N 55°59' W 003°10'0 0.0
2018-Apr-22 03:30N 55°59' W 003°10'0 0.0
2018-Apr-22 03:00N 55°59' W 003°10'0 0.0
2018-Apr-22 02:30N 55°59' W 003°10'0 0.0
2018-Apr-22 02:00N 55°59' W 003°10'0 0.0
2018-Apr-22 01:30N 55°59' W 003°10'0 0.0
2018-Apr-22 01:00N 55°59' W 003°10'0 0.0
2018-Apr-22 00:30N 55°59' W 003°10'0 0.0
2018-Apr-22 00:00N 55°59' W 003°10'0 0.0
2018-Apr-21 23:30N 55°59' W 003°10'0 0.0
2018-Apr-21 23:00N 55°59' W 003°10'0 0.0
2018-Apr-21 22:30N 55°59' W 003°10'0 0.0
2018-Apr-21 22:00N 55°59' W 003°10'0 0.0
2018-Apr-21 21:30N 55°59' W 003°10'0 0.0
2018-Apr-21 21:00N 55°59' W 003°10'0 0.0
2018-Apr-21 20:30N 55°59' W 003°10'0 0.0
2018-Apr-21 20:00N 55°59' W 003°10'0 0.0
2018-Apr-21 19:30N 55°59' W 003°10'0 0.0
2018-Apr-21 19:00N 55°59' W 003°10'0 0.0
2018-Apr-21 18:30N 55°59' W 003°10'0 0.0
2018-Apr-21 18:00N 55°59' W 003°10'0 0.0
2018-Apr-21 17:27N 55°59' W 003°10'0 0.0
2018-Apr-21 17:00N 55°59' W 003°10'0 0.0
2018-Apr-21 16:27N 55°59' W 003°10'0 0.0
2018-Apr-21 15:57N 55°59' W 003°10'0 0.0
2018-Apr-21 15:30N 55°59' W 003°10'0 0.0
2018-Apr-21 15:00N 55°59' W 003°10'0 0.0
2018-Apr-21 14:27N 55°59' W 003°10'0 0.0
2018-Apr-21 14:00N 55°59' W 003°10'0 0.0
2018-Apr-21 13:30N 55°59' W 003°10'0 0.0
2018-Apr-21 13:00N 55°59' W 003°10'0 0.0
2018-Apr-21 12:30N 55°59' W 003°10'0 0.0
2018-Apr-21 12:00N 55°59' W 003°10'0 0.0
2018-Apr-21 11:27N 55°59' W 003°10'0 0.0
2018-Apr-21 11:00N 55°59' W 003°10'0 0.0
2018-Apr-21 10:30N 55°59' W 003°10'0 0.0
2018-Apr-21 10:00N 55°59' W 003°10'0 0.0
2018-Apr-21 09:30N 55°59' W 003°10'0 0.0
2018-Apr-21 09:00N 55°59' W 003°10'0 0.0
2018-Apr-21 08:30N 55°59' W 003°10'0 0.0
2018-Apr-21 08:00N 55°59' W 003°10'0 0.0
2018-Apr-21 07:30N 55°59' W 003°10'0 0.0
2018-Apr-21 07:00N 55°59' W 003°10'0 0.0
2018-Apr-21 06:30N 55°59' W 003°10'0 0.0
2018-Apr-21 06:00N 55°59' W 003°10'0 0.0
2018-Apr-21 05:30N 55°59' W 003°10'0 0.0
2018-Apr-21 05:00N 55°59' W 003°10'0 0.0
2018-Apr-21 04:30N 55°59' W 003°10'0 0.0
2018-Apr-21 04:00N 55°59' W 003°10'0 0.0
2018-Apr-21 03:30N 55°59' W 003°10'0 0.0
2018-Apr-21 03:00N 55°59' W 003°10'0 0.0
2018-Apr-21 02:30N 55°59' W 003°10'0 0.0
2018-Apr-21 02:00N 55°59' W 003°10'0 0.0
2018-Apr-21 01:30N 55°59' W 003°10'0 0.0
2018-Apr-21 01:00N 55°59' W 003°10'0 0.0
2018-Apr-21 00:30N 55°59' W 003°10'0 0.0
2018-Apr-21 00:00N 55°59' W 003°10'0 0.0
2018-Apr-20 23:30N 55°59' W 003°10'0 0.0
2018-Apr-20 23:00N 55°59' W 003°10'0 0.0
2018-Apr-20 22:30N 55°59' W 003°10'0 0.0
2018-Apr-20 22:00N 55°59' W 003°10'0 0.0
2018-Apr-20 21:30N 55°59' W 003°10'0 0.0
2018-Apr-20 20:57N 55°59' W 003°10'0 0.0
2018-Apr-20 20:30N 55°59' W 003°10'0 0.0
2018-Apr-20 20:00N 55°59' W 003°10'0 0.0
2018-Apr-20 19:30N 55°59' W 003°10'0 0.0
2018-Apr-20 19:00N 55°59' W 003°10'0 0.0
2018-Apr-20 18:30N 55°59' W 003°10'0 0.0
2018-Apr-20 18:00N 55°59' W 003°10'0 0.0
2018-Apr-20 17:30N 55°59' W 003°10'0 0.0
2018-Apr-20 17:00N 55°59' W 003°10'0 0.0
2018-Apr-20 16:30N 55°59' W 003°10'0 0.0
2018-Apr-20 16:00N 55°59' W 003°10'0 0.0
2018-Apr-20 15:30N 55°59' W 003°10'0 0.0
2018-Apr-20 15:00N 55°59' W 003°10'0 0.0
2018-Apr-20 14:30N 55°59' W 003°10'0 0.0
2018-Apr-20 14:00N 55°59' W 003°10'0 0.0
2018-Apr-20 13:30N 55°59' W 003°10'0 0.0
2018-Apr-20 13:00N 55°59' W 003°10'0 0.0
2018-Apr-20 12:30N 55°59' W 003°10'0 0.0
2018-Apr-20 12:00N 55°59' W 003°10'0 0.0
2018-Apr-20 11:30N 55°59' W 003°10'0 0.0
2018-Apr-20 11:00N 55°59' W 003°10'0 0.0
2018-Apr-20 10:30N 55°59' W 003°10'0 0.0
2018-Apr-20 10:00N 55°59' W 003°10'0 0.0
2018-Apr-20 09:30N 55°59' W 003°10'0 0.0
2018-Apr-20 09:00N 55°59' W 003°10'0 0.0
2018-Apr-20 08:30N 55°59' W 003°10'0 0.0
2018-Apr-20 08:00N 55°59' W 003°10'0 0.0
2018-Apr-20 07:30N 55°59' W 003°10'0 0.0
2018-Apr-20 07:00N 55°59' W 003°10'0 0.0
2018-Apr-20 06:30N 55°59' W 003°10'0 0.0
2018-Apr-20 06:00N 55°59' W 003°10'0 0.0
2018-Apr-20 05:30N 55°59' W 003°10'0 0.0
2018-Apr-20 05:00N 55°59' W 003°10'0 0.0
2018-Apr-20 04:30N 55°59' W 003°10'0 0.0
2018-Apr-20 04:00N 55°59' W 003°10'0 0.0
2018-Apr-20 03:30N 55°59' W 003°10'0 0.0
2018-Apr-20 03:00N 55°59' W 003°10'0 0.0
2018-Apr-20 02:30N 55°59' W 003°10'0 0.0
2018-Apr-20 02:00N 55°59' W 003°10'0 0.0
2018-Apr-20 01:30N 55°59' W 003°10'0 0.0
2018-Apr-20 01:00N 55°59' W 003°10'0 0.0
2018-Apr-20 00:30N 55°59' W 003°10'0 0.0
2018-Apr-20 00:00N 55°59' W 003°10'0 0.0
2018-Apr-19 23:30N 55°59' W 003°10'0 0.0
2018-Apr-19 23:00N 55°59' W 003°10'0 0.0
2018-Apr-19 22:30N 55°59' W 003°10'0 0.0
2018-Apr-19 22:00N 55°59' W 003°10'0 0.0
2018-Apr-19 21:30N 55°59' W 003°10'0 0.0
2018-Apr-19 21:00N 55°59' W 003°10'0 0.0
2018-Apr-19 20:30N 55°59' W 003°10'0 0.0
2018-Apr-19 20:00N 55°59' W 003°10'0 0.0
2018-Apr-19 19:30N 55°59' W 003°10'0 0.0
2018-Apr-19 19:00N 55°59' W 003°10'0 0.0
2018-Apr-19 18:30N 55°59' W 003°10'0 0.0
2018-Apr-19 18:00N 55°59' W 003°10'0 0.0
2018-Apr-19 17:30N 55°59' W 003°10'0 0.0
2018-Apr-19 17:00N 55°59' W 003°10'0 0.0
2018-Apr-19 16:30N 55°59' W 003°10'0 0.0
2018-Apr-19 16:00N 55°59' W 003°10'0 0.0
2018-Apr-19 15:30N 55°59' W 003°10'0 0.0
2018-Apr-19 15:00N 55°59' W 003°10'0 0.0
2018-Apr-19 14:30N 55°59' W 003°10'0 0.0
2018-Apr-19 14:00N 55°59' W 003°10'0 0.0
2018-Apr-19 13:30N 55°59' W 003°10'0 0.0
2018-Apr-19 13:00N 55°59' W 003°10'0 0.0
2018-Apr-19 12:30N 55°59' W 003°10'0 0.0
2018-Apr-19 12:00N 55°59' W 003°10'0 0.0
2018-Apr-19 11:30N 55°59' W 003°10'0 0.0
2018-Apr-19 11:00N 55°59' W 003°10'0 0.0
2018-Apr-19 10:30N 55°59' W 003°10'0 0.0
2018-Apr-19 10:00N 55°59' W 003°10'0 0.0
2018-Apr-19 09:30N 55°59' W 003°10'0 0.0
2018-Apr-19 09:00N 55°59' W 003°10'0 0.0
2018-Apr-19 08:30N 55°59' W 003°10'0 0.0
2018-Apr-19 08:00N 55°59' W 003°10'0 0.0
2018-Apr-19 07:30N 55°59' W 003°10'0 0.0
2018-Apr-19 07:00N 55°59' W 003°10'0 0.0
2018-Apr-19 06:30N 55°59' W 003°10'0 0.0
2018-Apr-19 06:00N 55°59' W 003°10'0 0.0
2018-Apr-19 05:30N 55°59' W 003°10'0 0.0
2018-Apr-19 05:00N 55°59' W 003°10'0 0.0
2018-Apr-19 04:30N 55°59' W 003°10'0 0.0
2018-Apr-19 04:00N 55°59' W 003°10'0 0.0
2018-Apr-19 03:30N 55°59' W 003°10'0 0.0
2018-Apr-19 03:00N 55°59' W 003°10'0 0.0
2018-Apr-19 02:30N 55°59' W 003°10'0 0.0
2018-Apr-19 02:00N 55°59' W 003°10'0 0.0
2018-Apr-19 01:30N 55°59' W 003°10'0 0.0
2018-Apr-19 01:00N 55°59' W 003°10'0 0.0
2018-Apr-19 00:30N 55°59' W 003°10'0 0.0
2018-Apr-19 00:00N 55°59' W 003°10'0 0.0
2018-Apr-18 23:30N 55°59' W 003°10'0 0.0
2018-Apr-18 22:57N 55°59' W 003°10'0 0.0
2018-Apr-18 22:30N 55°59' W 003°10'0 0.0
2018-Apr-18 22:00N 55°59' W 003°10'0 0.0
2018-Apr-18 21:30N 55°59' W 003°10'0 0.0
2018-Apr-18 21:00N 55°59' W 003°10'0 0.0
2018-Apr-18 20:30N 55°59' W 003°10'0 0.0
2018-Apr-18 20:00N 55°59' W 003°10'0 0.0
2018-Apr-18 19:30N 55°59' W 003°10'0 0.0
2018-Apr-18 19:00N 55°59' W 003°10'0 0.0
2018-Apr-18 18:30N 55°59' W 003°10'0 0.0
2018-Apr-18 18:00N 55°59' W 003°10'0 0.0
2018-Apr-18 17:27N 55°59' W 003°10'0 0.0
2018-Apr-18 17:00N 55°59' W 003°10'0 0.0
2018-Apr-18 16:27N 55°59' W 003°10'0 0.0
2018-Apr-18 16:00N 55°59' W 003°10'0 0.0
2018-Apr-18 15:30N 55°59' W 003°10'0 0.0
2018-Apr-18 15:00N 55°59' W 003°10'0 0.0
2018-Apr-18 14:30N 55°59' W 003°10'0 0.0
2018-Apr-18 14:00N 55°59' W 003°10'0 0.0
2018-Apr-18 13:30N 55°59' W 003°10'0 0.0
2018-Apr-18 13:00N 55°59' W 003°10'0 0.0
2018-Apr-18 12:30N 55°59' W 003°10'0 0.0
2018-Apr-18 12:00N 55°59' W 003°10'0 0.0
2018-Apr-18 11:27N 55°59' W 003°10'0 0.0
2018-Apr-18 11:00N 55°59' W 003°10'0 0.0
2018-Apr-18 10:30N 55°59' W 003°10'0 0.0
2018-Apr-18 10:00N 55°59' W 003°10'0 0.0
2018-Apr-18 09:27N 55°59' W 003°10'0 0.0
2018-Apr-18 09:00N 55°59' W 003°10'0 0.0
2018-Apr-18 08:30N 55°59' W 003°10'0 0.0
2018-Apr-18 08:00N 55°59' W 003°10'0 0.0
2018-Apr-18 07:30N 55°59' W 003°10'0 0.0
2018-Apr-18 06:57N 55°59' W 003°10'0 0.0
2018-Apr-18 06:30N 55°59' W 003°10'0 0.0
2018-Apr-18 05:57N 55°59' W 003°10'0 0.0
2018-Apr-18 05:30N 55°59' W 003°10'0 0.0
2018-Apr-18 05:00N 55°59' W 003°10'0 0.4
2018-Apr-18 04:30N 55°59' W 003°10'0 1.0
2018-Apr-18 04:00N 55°59' W 003°11'0 0.5
2018-Apr-18 03:30N 55°59' W 003°11'1 2.4
2018-Apr-18 03:00N 56°00' W 003°10'4 7.9
2018-Apr-18 02:30N 56°02' W 003°04'2 4.2
2018-Apr-18 02:00N 56°03' W 003°00'2 3.9
2018-Apr-18 01:30N 56°04' W 002°57'2 4.2
2018-Apr-18 01:00N 56°05' W 002°54'2 4.4
2018-Apr-18 00:30N 56°06' W 002°50'2 4.1
2018-Apr-18 00:00N 56°06' W 002°46'2 4.5
2018-Apr-17 23:30N 56°07' W 002°43'2 4.3
2018-Apr-17 23:00N 56°08' W 002°39'2 4.3
2018-Apr-17 22:30N 56°08' W 002°35'2 4.5
2018-Apr-17 22:00N 56°09' W 002°31'2 4.4
2018-Apr-17 21:30N 56°10' W 002°28'2 4.4
2018-Apr-17 21:00N 56°10' W 002°24'2 4.6
2018-Apr-17 20:30N 56°11' W 002°20'2 4.1
2018-Apr-17 20:00N 56°13' W 002°18'2 4.4
2018-Apr-17 19:30N 56°15' W 002°17'2 4.3
2018-Apr-17 19:00N 56°17' W 002°16'3 5.9
2018-Apr-17 18:30N 56°20' W 002°14'3 6.8
2018-Apr-17 18:00N 56°23' W 002°12'4 7.1
2018-Apr-17 17:30N 56°27' W 002°11'4 7.3
2018-Apr-17 17:00N 56°30' W 002°09'27 8.3
2018-Apr-17 13:41N 56°56' W 001°52'211.1
2018-Apr-17 13:30N 56°58' W 001°51'610.8
2018-Apr-17 12:59N 57°03' W 001°48'510.4
2018-Apr-17 12:30N 57°08' W 001°45'510.1
2018-Apr-17 12:00N 57°13' W 001°41'6 9.9
2018-Apr-17 11:23N 57°18' W 001°38'4 9.6
2018-Apr-17 10:59N 57°22' W 001°35'5 9.4
2018-Apr-17 10:30N 57°27' W 001°33'4 9.1
2018-Apr-17 10:00N 57°31' W 001°31'4 8.0
2018-Apr-17 09:29N 57°35' W 001°32'4 8.7
2018-Apr-17 09:00N 57°38' W 001°36'4 8.6
2018-Apr-17 08:30N 57°42' W 001°41'4 8.7
2018-Apr-17 08:00N 57°45' W 001°47'4 8.7
2018-Apr-17 07:30N 57°49' W 001°51'5 9.0
2018-Apr-17 06:55N 57°53' W 001°56'44 9.5
2018-Apr-17 02:17N 58°30' W 002°43'3 9.6
2018-Apr-17 02:00N 58°32' W 002°46'4 8.9
2018-Apr-17 01:30N 58°36' W 002°51'5 9.7
2018-Apr-17 01:00N 58°39' W 002°57'5 9.7
2018-Apr-17 00:30N 58°43' W 003°04'611.5
2018-Apr-17 00:00N 58°44' W 003°15'611.8
2018-Apr-16 23:28N 58°44' W 003°27'5811.7
2018-Apr-16 18:30N 58°32' W 005°15'17410.7
2018-Apr-16 02:17N 55°48' W 007°03'414.3
2018-Apr-16 02:00N 55°45' W 006°58'715.1
2018-Apr-16 01:30N 55°39' W 006°49'715.0
2018-Apr-16 01:01N 55°34' W 006°40'714.3
2018-Apr-16 00:31N 55°29' W 006°30'713.5
2018-Apr-16 00:01N 55°27' W 006°19'713.3
2018-Apr-15 23:30N 55°25' W 006°08'611.7
2018-Apr-15 22:59N 55°22' W 005°59'611.7
2018-Apr-15 22:30N 55°17' W 005°54'510.5
2018-Apr-15 22:00N 55°13' W 005°48'1910.8
2018-Apr-15 20:13N 54°57' W 005°28'210.5
2018-Apr-15 20:00N 54°56' W 005°26'510.0
2018-Apr-15 19:30N 54°51' W 005°23'510.4
2018-Apr-15 19:00N 54°46' W 005°18'611.0
2018-Apr-15 18:30N 54°42' W 005°14'612.0
2018-Apr-15 18:00N 54°37' W 005°08'611.8
2018-Apr-15 17:30N 54°31' W 005°03'611.9
2018-Apr-15 17:00N 54°26' W 005°02'712.5
2018-Apr-15 16:28N 54°19' W 005°02'8312.1
2018-Apr-15 09:35N 52°57' W 005°25'214.2
2018-Apr-15 09:26N 52°55' W 005°26'714.3
2018-Apr-15 08:57N 52°48' W 005°28'7812.3
2018-Apr-15 02:36N 51°31' W 005°55'310.5
2018-Apr-15 02:16N 51°28' W 005°56'  

Dump ship's entire track history